Weather at Weston Airfield

Public forecast

Using degrees Celsius for public forecast. Weather courtesy of forecast.io.

Closest aviation weather report (METAR) to Weston Airfield

Closest report is Casement Air Base, 3.3 nm (6.1 km) SSE.

2024/05/28 10:00 (retrieved 27 minutes ago)

EIME 281000Z 24013KT 9999 SCT012 SCT019 BKN026 16/14 Q1005

Closest aviation forecast (TAF) to Weston Airfield

Closest forecast is Dublin Airport, 9.2 nm (17.1 km) ENE.

2024/05/28 06:09 (retrieved 4 hours ago)

TAF EIDW 280500Z 2806/2906 15007KT 6000 -RA FEW006 SCT020 BKN030 TEMPO 2806/2810 4000 -RADZ BKN012 PROB30 TEMPO 2806/2808 2500 RADZ BKN006 BECMG 2807/2809 23012KT PROB30 TEMPO 2810/2906 BKN012 PROB30 TEMPO 2811/2820 25015G25KT PROB40 TEMPO 2812/2819 -SHRA FEW020CB PROB30 TEMPO 2815/2818 4000 SHRA BECMG 2818/2820 26010KT